Detroit, MI

4:54 PM EST on March 01, 2015 (GMT -0500)
KMIBROWN4 | Change Station
CLOSE
Current Station
Personal Weather Station
Location: Brownstown, MI
Elevation: 623 ft
Nearby Weather Stations

Elev 623 ft 42.16 °N, 83.30 °W | Updated 2 minutes ago

Light Snow
Light Snow
25.2 °F
Feels Like 25 °F
N
0.0
Wind Variable Wind from WSW
Gusts 0.0 mph

Today
High -- | Low -- °F
--% Chance of Precip.
Yesterday
High -- | Low -- °F
Precip. -- in
7:09 AM 6:23 PM
Waxing Gibbous, 87% visible
Pressure 30.26 in
Visibility 3.0 miles
Clouds Few 1500 ft
Mostly Cloudy 3000 ft
Overcast 4000 ft
Windchill 25 °F
Dew Point 21 °F
Humidity 85%
Rainfall 0.00 in
Snow Depth Not available.
UV 1 out of 12
Pollen .50 out of 12
Air Quality Not available.
Flu Activity Not available.
SPECI KDTW 012102Z 24006KT 3SM -SN FEW015 BKN030 OVC040 M04/M07 A3026 RMK AO2 SFC VIS 4 P0000

More Conditions Fewer Conditions

Pressure 30.26 in
Visibility 3.0 miles
Clouds Few 1500 ft
Mostly Cloudy 3000 ft
Overcast 4000 ft
Windchill 25 °F
Dew Point 21 °F
Humidity 85%
Rainfall 0.00 in
Snow Depth Not available.
UV 1 out of 12
Pollen .50 out of 12
Air Quality Not available.
Flu Activity Not available.
SPECI KDTW 012102Z 24006KT 3SM -SN FEW015 BKN030 OVC040 M04/M07 A3026 RMK AO2 SFC VIS 4 P0000

More Conditions Fewer Conditions

10-Day Weather Forecast

Almanac

Astronomy

Mar. 01, 2015 Rise Set
Actual Time
Civil Twilight
Nautical Twilight
Astronomical Twilight
Moon
Length of Visible Light
Length of Day
Tomorrow will be .
, % of the Moon is Illuminated

Today's Extremes

State Highs State Lows

Community

WunderPhotos

Upload Photos

1,801,577 photos uploaded!

WunderBlogs® & News

Nearby

Air Quality

  Air Quality AQ Index Pollutant
Not available.

Snow Depth

Station Depth Elevation

Earthquake Activity

City Distance Mag. Time & Date
Minimum magnitude displayed is 2.5.

Coastal Water Temperatures

Place Temperature

Nearby Weather Stations